createdAt,value
2023-02-09T00:01:15.345Z,102628.57
2023-02-09T00:04:37.110Z,102625.84
2023-02-09T00:07:59.117Z,102624.39
2023-02-09T00:11:46.456Z,102624.70
2023-02-09T00:15:11.215Z,102627.33
2023-02-09T00:18:34.047Z,102631.73
2023-02-09T00:21:55.854Z,102627.37
2023-02-09T00:25:17.839Z,102629.39
2023-02-09T00:28:39.623Z,102622.59
2023-02-09T00:32:01.442Z,102622.95
2023-02-09T00:35:23.359Z,102628.73
2023-02-09T00:38:45.230Z,102631.49
2023-02-09T00:42:07.094Z,102633.67
2023-02-09T00:45:29.472Z,102630.60
2023-02-09T00:48:51.274Z,102622.23
2023-02-09T00:52:13.035Z,102616.63
2023-02-09T00:55:35.294Z,102607.84
2023-02-09T00:58:57.143Z,102598.92
2023-02-09T01:02:20.012Z,102591.73
2023-02-09T01:05:42.900Z,102585.39
2023-02-09T01:09:06.106Z,102576.02
2023-02-09T01:12:28.014Z,102574.98
2023-02-09T01:15:49.869Z,102574.05
2023-02-09T01:19:15.631Z,102570.05
2023-02-09T01:22:37.925Z,102568.98
2023-02-09T01:26:04.161Z,102565.02
2023-02-09T01:29:28.588Z,102558.52
2023-02-09T01:32:50.463Z,102553.69
2023-02-09T01:36:12.294Z,102546.34
2023-02-09T01:39:34.082Z,102542.54
2023-02-09T01:42:55.852Z,102537.55
2023-02-09T01:46:17.854Z,102533.86
2023-02-09T01:49:39.762Z,102530.63
2023-02-09T01:53:02.895Z,102523.02
2023-02-09T01:56:28.999Z,102519.95
2023-02-09T02:00:14.476Z,102511.73
2023-02-09T02:03:36.229Z,102506.33
2023-02-09T02:07:08.744Z,102497.45
2023-02-09T02:10:31.522Z,102489.36
2023-02-09T02:13:53.375Z,102484.93
2023-02-09T02:17:33.753Z,102481.15
2023-02-09T02:21:32.830Z,102477.20
2023-02-09T02:25:48.286Z,102471.97
2023-02-09T02:29:34.089Z,102457.94
2023-02-09T02:33:03.648Z,102456.34
2023-02-09T02:36:53.392Z,102452.25
2023-02-09T02:40:45.313Z,102446.05
2023-02-09T02:44:12.816Z,102444.77
2023-02-09T02:47:36.921Z,102439.73
2023-02-09T02:51:12.672Z,102439.15
2023-02-09T02:54:41.373Z,102436.45
2023-02-09T02:58:06.927Z,102430.58
2023-02-09T03:01:34.349Z,102425.05
2023-02-09T03:04:58.242Z,102418.78
2023-02-09T03:08:20.064Z,102417.83
2023-02-09T03:11:44.830Z,102410.03
2023-02-09T03:15:21.551Z,102406.95
2023-02-09T03:18:59.718Z,102396.10
2023-02-09T03:22:58.162Z,102388.52
2023-02-09T03:26:28.083Z,102383.11
2023-02-09T03:29:54.196Z,102385.13
2023-02-09T03:33:24.964Z,102388.80
2023-02-09T03:36:51.583Z,102390.30
2023-02-09T03:40:13.721Z,102389.95
2023-02-09T03:43:55.033Z,102393.77
2023-02-09T03:47:16.796Z,102397.30
2023-02-09T03:50:38.558Z,102395.91
2023-02-09T03:54:00.377Z,102398.09
2023-02-09T03:57:22.258Z,102398.64
2023-02-09T04:00:44.392Z,102398.13
2023-02-09T04:04:06.700Z,102394.52
2023-02-09T04:07:28.490Z,102395.09
2023-02-09T04:10:50.318Z,102393.35
2023-02-09T04:14:12.436Z,102388.13
2023-02-09T04:17:34.191Z,102394.14
2023-02-09T04:20:55.998Z,102395.09
2023-02-09T04:24:17.996Z,102393.88
2023-02-09T04:27:39.859Z,102388.45
2023-02-09T04:31:01.816Z,102389.29
2023-02-09T04:34:24.715Z,102388.41
2023-02-09T04:37:46.570Z,102385.29
2023-02-09T04:41:09.916Z,102381.44
2023-02-09T04:44:31.721Z,102375.66
2023-02-09T04:47:53.571Z,102369.93
2023-02-09T04:51:15.645Z,102373.52
2023-02-09T04:54:37.414Z,102374.19
2023-02-09T04:58:18.033Z,102374.43
2023-02-09T05:01:39.831Z,102375.92
2023-02-09T05:05:01.596Z,102373.98
2023-02-09T05:08:23.882Z,102369.97
2023-02-09T05:11:45.659Z,102361.13
2023-02-09T05:15:07.756Z,102358.24
2023-02-09T05:18:29.614Z,102359.17
2023-02-09T05:21:51.424Z,102360.46
2023-02-09T05:25:13.241Z,102360.84
2023-02-09T05:28:35.184Z,102364.88
2023-02-09T05:31:56.988Z,102363.56
2023-02-09T05:35:19.184Z,102366.31
2023-02-09T05:38:41.054Z,102363.06
2023-02-09T05:42:18.063Z,102351.88
2023-02-09T05:45:40.084Z,102351.55
2023-02-09T05:49:01.971Z,102356.50
2023-02-09T05:52:23.753Z,102351.65
2023-02-09T05:55:46.663Z,102345.50
2023-02-09T05:59:08.480Z,102343.27
2023-02-09T06:02:30.490Z,102344.16
2023-02-09T06:05:52.340Z,102342.48
2023-02-09T06:09:14.259Z,102338.92
2023-02-09T06:12:36.044Z,102333.85
2023-02-09T06:15:58.156Z,102331.22
2023-02-09T06:19:21.483Z,102333.52
2023-02-09T06:22:43.249Z,102332.98
2023-02-09T06:26:09.778Z,102332.56
2023-02-09T06:29:32.028Z,102332.35
2023-02-09T06:32:53.781Z,102334.45
2023-02-09T06:36:15.638Z,102333.91
2023-02-09T06:39:37.480Z,102337.03
2023-02-09T06:42:59.364Z,102339.49
2023-02-09T06:46:21.288Z,102328.90
2023-02-09T06:49:43.126Z,102328.24
2023-02-09T06:53:05.398Z,102330.64
2023-02-09T06:56:27.294Z,102329.94
2023-02-09T06:59:49.226Z,102331.48
2023-02-09T07:03:11.552Z,102335.13
2023-02-09T07:06:33.349Z,102333.19
2023-02-09T07:09:55.124Z,102330.17
2023-02-09T07:13:17.297Z,102326.19
2023-02-09T07:16:39.208Z,102332.67
2023-02-09T07:20:03.768Z,102329.18
2023-02-09T07:23:25.965Z,102331.36
2023-02-09T07:26:47.800Z,102327.95
2023-02-09T07:30:15.823Z,102326.79
2023-02-09T07:33:37.802Z,102327.27
2023-02-09T07:36:59.716Z,102327.61
2023-02-09T07:40:21.774Z,102324.48
2023-02-09T07:43:44.078Z,102326.10
2023-02-09T07:47:06.007Z,102329.48
2023-02-09T07:50:27.914Z,102322.73
2023-02-09T07:53:52.081Z,102315.16
2023-02-09T07:57:14.033Z,102318.10
2023-02-09T08:00:35.868Z,102317.91
2023-02-09T08:04:00.147Z,102316.41
2023-02-09T08:07:22.309Z,102319.34
2023-02-09T08:10:44.309Z,102317.54
2023-02-09T08:14:11.503Z,102314.32
2023-02-09T08:17:33.428Z,102308.02
2023-02-09T08:20:55.325Z,102306.35
2023-02-09T08:24:19.003Z,102305.59
2023-02-09T08:27:43.085Z,102307.39
2023-02-09T08:31:05.090Z,102307.23
2023-02-09T08:34:28.581Z,102305.39
2023-02-09T08:37:50.370Z,102301.91
2023-02-09T08:41:14.921Z,102305.54
2023-02-09T08:44:36.669Z,102309.67
2023-02-09T08:47:58.420Z,102314.45
2023-02-09T08:51:20.461Z,102312.30
2023-02-09T08:54:42.343Z,102316.54
2023-02-09T08:58:05.035Z,102320.36
2023-02-09T09:01:26.892Z,102315.91
2023-02-09T09:04:49.012Z,102311.56
2023-02-09T09:08:13.399Z,102318.05
2023-02-09T09:11:35.193Z,102316.16
2023-02-09T09:14:57.034Z,102312.29
2023-02-09T09:18:19.143Z,102313.82
2023-02-09T09:21:40.947Z,102315.50
2023-02-09T09:25:03.488Z,102312.77
2023-02-09T09:28:25.540Z,102314.14
2023-02-09T09:31:47.678Z,102312.09
2023-02-09T09:35:09.648Z,102314.80
2023-02-09T09:38:39.802Z,102309.52
2023-02-09T09:42:02.264Z,102311.40
2023-02-09T09:45:27.170Z,102301.10
2023-02-09T09:48:55.101Z,102299.30
2023-02-09T09:52:23.161Z,102299.63
2023-02-09T09:55:45.649Z,102295.39
2023-02-09T09:59:15.481Z,102289.51
2023-02-09T10:02:38.395Z,102280.11
2023-02-09T10:06:05.053Z,102272.31
2023-02-09T10:09:57.576Z,102267.31
2023-02-09T10:13:34.543Z,102260.15
2023-02-09T10:16:56.366Z,102251.73
2023-02-09T10:20:18.473Z,102247.82
2023-02-09T10:23:43.296Z,102233.70
2023-02-09T10:27:19.872Z,102226.76
2023-02-09T10:30:46.175Z,102215.05
2023-02-09T10:34:08.165Z,102206.90
2023-02-09T10:37:38.264Z,102196.02
2023-02-09T10:41:01.245Z,102184.31
2023-02-09T10:44:35.148Z,102180.23
2023-02-09T10:47:58.964Z,102165.66
2023-02-09T10:51:29.309Z,102155.39
2023-02-09T10:55:02.310Z,102146.36
2023-02-09T10:58:33.207Z,102141.52
2023-02-09T11:02:00.604Z,102130.23
2023-02-09T11:05:22.364Z,102116.71
2023-02-09T11:08:48.080Z,102106.25
2023-02-09T11:12:13.460Z,102103.89
2023-02-09T11:15:39.604Z,102107.70
2023-02-09T11:19:22.664Z,102096.94
2023-02-09T11:22:59.540Z,102093.50
2023-02-09T11:26:38.330Z,102081.31
2023-02-09T11:30:36.999Z,102076.27
2023-02-09T11:34:24.260Z,102072.05
2023-02-09T11:37:58.729Z,102070.48
2023-02-09T11:41:52.728Z,102064.35
2023-02-09T11:45:16.714Z,102058.38
2023-02-09T11:48:45.623Z,102049.64
2023-02-09T11:52:08.624Z,102049.67
2023-02-09T11:55:58.092Z,102049.05
2023-02-09T11:59:29.184Z,102049.13
2023-02-09T12:03:12.402Z,102038.84
2023-02-09T12:06:40.068Z,102039.57
2023-02-09T12:10:07.831Z,102033.38
2023-02-09T12:13:40.497Z,102030.58
2023-02-09T12:17:24.749Z,102030.08
2023-02-09T12:20:51.579Z,102026.16
2023-02-09T12:24:33.767Z,102017.20
2023-02-09T12:28:14.890Z,102011.70
2023-02-09T12:32:01.866Z,102012.48
2023-02-09T12:35:38.699Z,101999.17
2023-02-09T12:39:24.887Z,101992.98
2023-02-09T12:43:09.713Z,101988.30
2023-02-09T12:46:31.792Z,101980.56
2023-02-09T12:50:04.059Z,101970.30
2023-02-09T12:53:26.970Z,101959.02
2023-02-09T12:56:48.804Z,101957.45
2023-02-09T13:00:10.585Z,101963.00
2023-02-09T13:03:34.051Z,101956.83
2023-02-09T13:06:57.444Z,101960.79
2023-02-09T13:10:50.095Z,101960.45
2023-02-09T13:14:14.660Z,101950.85
2023-02-09T13:17:39.332Z,101948.45
2023-02-09T13:21:23.021Z,101942.70
2023-02-09T13:25:23.858Z,101932.73
2023-02-09T13:28:46.714Z,101924.82
2023-02-09T13:32:18.031Z,101918.46
2023-02-09T13:36:07.165Z,101909.02
2023-02-09T13:39:38.166Z,101902.16
2023-02-09T13:43:13.133Z,101897.94
2023-02-09T13:46:35.519Z,101890.59
2023-02-09T13:49:58.996Z,101888.02
2023-02-09T13:57:01.174Z,101894.72
2023-02-09T14:00:33.096Z,101894.48
2023-02-09T14:04:00.170Z,101892.97
2023-02-09T14:07:25.085Z,101894.92
2023-02-09T14:10:55.489Z,101890.02
2023-02-09T14:15:12.674Z,101882.70
2023-02-09T14:18:52.922Z,101875.84
2023-02-09T14:22:33.554Z,101869.71
2023-02-09T14:26:28.456Z,101871.71
2023-02-09T14:29:50.911Z,101860.92
2023-02-09T14:33:24.857Z,101846.66
2023-02-09T14:36:56.352Z,101842.11
2023-02-09T14:40:29.875Z,101841.38
2023-02-09T14:44:03.770Z,101844.42
2023-02-09T14:47:35.141Z,101841.91
2023-02-09T14:51:02.981Z,101839.39
2023-02-09T14:54:28.296Z,101836.51
2023-02-09T14:57:50.157Z,101833.62
2023-02-09T15:01:12.106Z,101835.76
2023-02-09T15:04:33.966Z,101831.79
2023-02-09T15:08:03.139Z,101833.79
2023-02-09T15:11:44.760Z,101833.34
2023-02-09T15:15:06.860Z,101834.40
2023-02-09T15:18:29.775Z,101832.95
2023-02-09T15:22:06.310Z,101835.46
2023-02-09T15:25:29.397Z,101834.14
2023-02-09T15:28:51.271Z,101833.24
2023-02-09T15:32:17.553Z,101832.45
2023-02-09T15:35:41.437Z,101830.73
2023-02-09T15:39:04.586Z,101833.77
2023-02-09T15:42:45.364Z,101833.73
2023-02-09T15:46:27.262Z,101824.05
2023-02-09T15:49:49.232Z,101817.71
2023-02-09T15:53:15.076Z,101817.77
2023-02-09T15:56:37.458Z,101810.09
2023-02-09T16:03:35.042Z,101795.92
2023-02-09T16:06:56.905Z,101799.09
2023-02-09T16:10:25.026Z,101801.81
2023-02-09T16:13:47.816Z,101803.27
2023-02-09T16:17:11.722Z,101798.40
2023-02-09T16:20:38.924Z,101796.96
2023-02-09T16:24:03.046Z,101793.26
2023-02-09T16:27:28.796Z,101798.58
2023-02-09T16:30:58.044Z,101795.34
2023-02-09T16:34:19.959Z,101796.31
2023-02-09T16:37:43.128Z,101796.58
2023-02-09T16:41:05.196Z,101784.96
2023-02-09T16:44:33.168Z,101780.19
2023-02-09T16:47:59.119Z,101778.39
2023-02-09T16:51:24.476Z,101774.73
2023-02-09T16:54:55.201Z,101777.16
2023-02-09T16:58:18.463Z,101777.96
2023-02-09T17:01:40.561Z,101778.34
2023-02-09T17:05:08.600Z,101775.88
2023-02-09T17:08:33.320Z,101775.03
2023-02-09T17:11:55.296Z,101773.10
2023-02-09T17:15:28.919Z,101767.59
2023-02-09T17:18:55.118Z,101763.77
2023-02-09T17:22:17.429Z,101758.55
2023-02-09T17:25:39.363Z,101754.89
2023-02-09T17:29:01.395Z,101750.21
2023-02-09T17:32:23.308Z,101749.98
2023-02-09T17:36:10.505Z,101739.67
2023-02-09T17:39:29.433Z,101737.36
2023-02-09T17:42:52.846Z,101741.14
2023-02-09T17:46:18.581Z,101740.07
2023-02-09T17:49:40.554Z,101736.71
2023-02-09T17:53:02.392Z,101735.13
2023-02-09T17:56:24.284Z,101726.41
2023-02-09T17:59:46.945Z,101717.52
2023-02-09T18:03:22.945Z,101714.80
2023-02-09T18:06:48.576Z,101711.60
2023-02-09T18:15:16.646Z,101698.67
2023-02-09T18:19:34.485Z,101689.79
2023-02-09T18:23:26.675Z,101689.07
2023-02-09T18:35:52.593Z,101678.14
2023-02-09T18:42:58.169Z,101676.02
2023-02-09T18:46:20.796Z,101672.75
2023-02-09T18:49:42.747Z,101669.95
2023-02-09T18:53:04.563Z,101669.30
2023-02-09T18:56:28.573Z,101668.77
2023-02-09T18:59:50.538Z,101661.30
2023-02-09T19:03:13.212Z,101654.90
2023-02-09T19:06:35.553Z,101647.64
2023-02-09T19:09:57.528Z,101647.63
2023-02-09T19:13:19.463Z,101652.94
2023-02-09T19:16:41.463Z,101646.85
2023-02-09T19:20:04.525Z,101642.88
2023-02-09T19:23:26.396Z,101638.09
2023-02-09T19:26:48.412Z,101629.95
2023-02-09T19:30:14.272Z,101634.85
2023-02-09T19:33:36.243Z,101635.73
2023-02-09T19:36:58.208Z,101626.05
2023-02-09T19:40:28.618Z,101623.74
2023-02-09T19:43:55.230Z,101620.83
2023-02-09T19:47:17.126Z,101624.48
2023-02-09T19:50:38.951Z,101621.44
2023-02-09T19:54:01.027Z,101619.95
2023-02-09T19:57:23.068Z,101617.62
2023-02-09T20:00:44.931Z,101611.95
2023-02-09T20:04:09.428Z,101608.78
2023-02-09T20:07:31.202Z,101605.88
2023-02-09T20:10:52.984Z,101601.14
2023-02-09T20:14:14.936Z,101598.19
2023-02-09T20:17:36.918Z,101599.93
2023-02-09T20:20:58.884Z,101596.98
2023-02-09T20:24:20.932Z,101595.98
2023-02-09T20:27:42.891Z,101592.66
2023-02-09T20:31:06.442Z,101589.05
2023-02-09T20:34:28.560Z,101592.62
2023-02-09T20:37:52.973Z,101590.55
2023-02-09T20:41:17.448Z,101589.69
2023-02-09T20:45:00.697Z,101589.54
2023-02-09T20:48:22.529Z,101594.08
2023-02-09T20:51:46.027Z,101584.93
2023-02-09T20:55:12.021Z,101590.17
2023-02-09T20:58:33.859Z,101594.03
2023-02-09T21:01:55.662Z,101600.18
2023-02-09T21:05:17.510Z,101608.78
2023-02-09T21:08:39.423Z,101611.98
2023-02-09T21:12:01.148Z,101608.13
2023-02-09T21:15:23.210Z,101601.83
2023-02-09T21:18:45.862Z,101594.42
2023-02-09T21:22:07.889Z,101593.81
2023-02-09T21:25:29.803Z,101590.14
2023-02-09T21:28:57.485Z,101579.90
2023-02-09T21:32:19.445Z,101578.52
2023-02-09T21:35:41.791Z,101574.89
2023-02-09T21:39:03.856Z,101561.66
2023-02-09T21:42:32.795Z,101561.27
2023-02-09T21:45:54.824Z,101561.98
2023-02-09T21:49:16.752Z,101559.92
2023-02-09T21:52:38.713Z,101557.90
2023-02-09T21:56:00.526Z,101548.87
2023-02-09T21:59:22.372Z,101553.87
2023-02-09T22:02:45.633Z,101560.44
2023-02-09T22:06:07.557Z,101565.05
2023-02-09T22:09:29.395Z,101561.90
2023-02-09T22:12:52.315Z,101569.78
2023-02-09T22:16:20.060Z,101567.27
2023-02-09T22:19:44.126Z,101570.20
2023-02-09T22:23:11.032Z,101560.87
2023-02-09T22:26:33.467Z,101559.83
2023-02-09T22:29:55.280Z,101565.17
2023-02-09T22:33:20.322Z,101560.00
2023-02-09T22:36:42.266Z,101559.82
2023-02-09T22:40:09.401Z,101558.39
2023-02-09T22:43:34.290Z,101551.64
2023-02-09T22:46:57.351Z,101545.70
2023-02-09T22:50:20.651Z,101542.40
2023-02-09T22:53:47.089Z,101536.79
2023-02-09T22:57:09.870Z,101542.81
2023-02-09T23:00:34.226Z,101547.83
2023-02-09T23:04:00.387Z,101545.99
2023-02-09T23:07:24.407Z,101540.77
2023-02-09T23:10:46.871Z,101534.15
2023-02-09T23:14:11.237Z,101537.82
2023-02-09T23:17:34.333Z,101536.92
2023-02-09T23:20:56.137Z,101541.19
2023-02-09T23:24:28.121Z,101538.02
2023-02-09T23:27:53.523Z,101536.48
2023-02-09T23:31:18.388Z,101525.54
2023-02-09T23:34:41.091Z,101515.98
2023-02-09T23:38:02.872Z,101510.21
2023-02-09T23:41:26.365Z,101502.02
2023-02-09T23:44:48.150Z,101505.02
2023-02-09T23:48:10.603Z,101501.17
2023-02-09T23:51:34.444Z,101509.45
2023-02-09T23:54:56.267Z,101505.14
2023-02-09T23:58:18.259Z,101500.38
